EGSS

London Stansted Airport

Airport
ICAO code
EGSS
IATA Code
STN
Summary
ICAO Region
EUR
ICAO Territory
Location

Stansted, England, United Kingdom, Essex

Serving
London
Elevation
348 ft
Coordinates
51° 53' 22" N , 0° 15' 41" E
KCC
Cfb
Metar
Observation
EGSS 101020Z AUTO 08007KT 040V120 9999 NCD 25/14 Q1027
Station
Stansted Airport
Date/Time
2022-08-10 10:20:00
Wind direction
80°
Wind speed
07 kts
Lowest cloud amount
no clouds detected
Temperature
25°C
Dew point
14°C
Humidity
50%
QNH
1027 hPa
Weather condition
n/a

London Stansted Airport is an international airport located at Stansted Mountfitchet in the district of Uttlesford in Essex, 42nm northeast of Central London.

Climatology

Temperate Marine climate/Oceanic climate (Köppen climate classification Cfb).

Runways

Designator Length Width Surface Rops
5/23 3048 46 ASP Yes/Yes

SKYbrary Partners:

Safety knowledge contributed by: